Time;durP1;ratioP1;P1;durP2;ratioP2;P2;SDS_P1;SDS_P2;PMS_P1;PMS_P2;Temp;Humidity;BMP_temperature;BMP_pressure;BME280_temperature;BME280_humidity;BME280_pressure;Samples;Min_cycle;Max_cycle;Signal;HPM_P1;HPM_P2
2022/01/18 05:14:49;;;;;;;1.55;1.55;;;1.70;99.90;;;;;;5012308;28;20236;-69
2022/01/18 05:17:34;;;;;;;1.63;1.63;;;1.70;99.90;;;;;;5016084;28;20719;-69
2022/01/18 05:20:11;;;;;;;1.60;1.60;;;1.70;99.90;;;;;;5015907;28;20285;-70
2022/01/18 05:22:57;;;;;;;1.60;1.50;;;1.70;99.90;;;;;;5016887;28;20283;-71
2022/01/18 05:25:26;;;;;;;2.00;2.00;;;1.80;99.90;;;;;;5015911;28;20637;-74
2022/01/18 05:27:53;;;;;;;1.58;1.58;;;1.80;99.90;;;;;;5016035;28;20208;-72
2022/01/18 05:30:21;;;;;;;1.65;1.55;;;1.80;99.90;;;;;;5016369;28;20230;-72
2022/01/18 05:32:48;;;;;;;1.50;1.50;;;1.80;99.90;;;;;;5015966;28;20318;-72
2022/01/18 05:35:15;;;;;;;1.90;1.90;;;1.80;99.90;;;;;;5015919;28;20298;-74
2022/01/18 05:37:42;;;;;;;1.67;1.67;;;1.90;99.90;;;;;;5016637;28;20264;-72
2022/01/18 05:40:10;;;;;;;2.22;2.13;;;1.90;99.90;;;;;;5015533;28;20233;-72
2022/01/18 05:42:37;;;;;;;1.88;1.88;;;1.90;99.90;;;;;;5015855;28;20308;-72
2022/01/18 05:45:06;;;;;;;2.17;2.15;;;1.80;99.90;;;;;;5090854;22;20251;-68
2022/01/18 05:47:35;;;;;;;1.67;1.60;;;1.90;99.90;;;;;;5076263;28;20631;-67
2022/01/18 05:50:02;;;;;;;2.33;2.22;;;1.90;99.90;;;;;;5075892;28;20234;-67
2022/01/18 05:52:29;;;;;;;2.20;2.10;;;1.90;99.90;;;;;;5075195;28;20196;-68
2022/01/18 05:54:56;;;;;;;2.67;2.53;;;1.90;99.90;;;;;;5075257;28;20270;-68
2022/01/18 05:57:23;;;;;;;2.92;2.72;;;1.90;99.90;;;;;;5075240;28;20196;-68
2022/01/18 05:59:50;;;;;;;2.70;2.50;;;1.90;99.90;;;;;;5074820;28;20235;-69
2022/01/18 06:02:29;;;;;;;3.97;3.67;;;1.90;99.90;;;;;;5074792;28;20314;-68
2022/01/18 06:07:42;;;;;;;3.85;3.45;;;1.80;99.90;;;;;;5075188;28;20183;-68
2022/01/18 06:10:10;;;;;;;4.18;3.88;;;1.90;99.90;;;;;;5074831;28;20234;-68
2022/01/18 06:12:37;;;;;;;4.32;3.92;;;1.80;99.90;;;;;;5074792;28;20235;-69
2022/01/18 06:15:04;;;;;;;3.83;3.53;;;1.90;99.90;;;;;;5074674;28;20216;-69
2022/01/18 06:17:31;;;;;;;4.15;3.83;;;1.90;99.90;;;;;;5074752;28;20235;-69
2022/01/18 06:19:59;;;;;;;4.20;3.80;;;1.90;99.90;;;;;;5074303;28;20243;-69
2022/01/18 06:22:26;;;;;;;4.22;3.92;;;1.90;99.90;;;;;;5074355;28;20315;-69
2022/01/18 06:24:53;;;;;;;4.10;3.70;;;1.90;99.90;;;;;;5073956;28;20259;-68
2022/01/18 06:27:21;;;;;;;3.58;3.38;;;1.90;99.90;;;;;;5074461;28;20246;-68
2022/01/18 06:29:48;;;;;;;4.65;4.13;;;1.90;99.90;;;;;;5074262;28;20299;-68
2022/01/18 06:32:15;;;;;;;3.60;3.40;;;1.90;99.90;;;;;;5074326;28;20273;-68
2022/01/18 06:34:43;;;;;;;3.90;3.30;;;2.00;99.90;;;;;;5073803;28;20698;-69
2022/01/18 06:37:11;;;;;;;3.63;3.33;;;2.00;99.90;;;;;;5074179;28;20367;-68
2022/01/18 06:39:38;;;;;;;4.13;3.83;;;2.00;99.90;;;;;;5074194;28;20333;-68
2022/01/18 06:42:06;;;;;;;3.95;3.58;;;2.10;99.90;;;;;;5073902;28;20251;-68
2022/01/18 06:44:33;;;;;;;3.90;3.60;;;2.00;99.90;;;;;;5073576;28;20296;-69
2022/01/18 06:47:00;;;;;;;4.90;4.43;;;2.00;99.90;;;;;;5073525;28;20243;-69
2022/01/18 06:49:27;;;;;;;4.15;3.85;;;2.00;99.90;;;;;;5073552;28;20240;-68
2022/01/18 06:51:54;;;;;;;4.63;4.32;;;2.00;99.90;;;;;;5073703;28;20287;-68
2022/01/18 06:54:22;;;;;;;5.13;4.03;;;2.10;99.90;;;;;;5073681;28;20228;-68
2022/01/18 06:56:50;;;;;;;4.78;4.40;;;2.10;99.90;;;;;;5073647;28;20204;-68
2022/01/18 06:59:18;;;;;;;7.47;5.55;;;2.10;99.90;;;;;;5073438;28;20226;-68
2022/01/18 07:01:45;;;;;;;4.90;4.50;;;2.20;99.90;;;;;;5073170;28;20219;-68
2022/01/18 07:04:12;;;;;;;4.38;4.00;;;2.10;99.90;;;;;;5073357;28;20220;-68
2022/01/18 07:06:39;;;;;;;4.00;3.60;;;2.00;99.90;;;;;;5073700;28;20639;-68
2022/01/18 07:09:06;;;;;;;3.15;2.97;;;2.00;99.90;;;;;;5073400;28;20245;-68
2022/01/18 07:11:34;;;;;;;2.80;2.60;;;2.00;99.90;;;;;;5073767;28;20227;-68
2022/01/18 07:14:01;;;;;;;1.95;1.85;;;2.00;99.90;;;;;;5073588;28;20220;-68
2022/01/18 07:16:28;;;;;;;2.33;2.22;;;2.00;99.90;;;;;;5073369;28;20239;-68
2022/01/18 07:18:54;;;;;;;2.67;2.58;;;2.00;99.90;;;;;;5073381;28;20303;-68
2022/01/18 07:21:21;;;;;;;3.05;2.85;;;2.00;99.90;;;;;;5073250;28;20710;-68
2022/01/18 07:23:50;;;;;;;2.20;2.10;;;2.00;99.90;;;;;;5073276;28;20220;-69
2022/01/18 07:26:17;;;;;;;3.38;2.60;;;2.10;99.90;;;;;;5073524;28;20359;-68
2022/01/18 07:28:45;;;;;;;2.25;2.15;;;2.10;99.90;;;;;;5073485;28;20227;-68
2022/01/18 07:31:12;;;;;;;2.13;2.13;;;2.10;99.90;;;;;;5073480;28;20239;-68
2022/01/18 07:33:40;;;;;;;2.42;2.30;;;2.10;99.90;;;;;;5073408;28;20220;-69
2022/01/18 07:36:07;;;;;;;2.22;2.13;;;2.10;99.90;;;;;;5073445;28;20200;-68
2022/01/18 07:38:34;;;;;;;3.92;2.72;;;2.20;99.90;;;;;;5073138;28;20608;-68
2022/01/18 07:41:01;;;;;;;2.53;2.42;;;2.20;99.90;;;;;;5073609;28;20292;-69
2022/01/18 07:43:28;;;;;;;2.80;2.30;;;2.20;99.90;;;;;;5073240;28;20324;-69
2022/01/18 07:45:57;;;;;;;2.20;2.10;;;2.20;99.90;;;;;;5073418;28;20215;-68
2022/01/18 07:48:24;;;;;;;3.13;2.92;;;2.30;99.90;;;;;;5072990;28;20706;-68
2022/01/18 07:50:53;;;;;;;2.50;2.38;;;2.20;99.90;;;;;;5073431;28;20253;-68
2022/01/18 07:53:20;;;;;;;2.33;2.17;;;2.20;99.90;;;;;;5073126;28;20203;-68
2022/01/18 07:55:48;;;;;;;3.70;3.42;;;2.30;99.90;;;;;;5073343;28;20231;-68
2022/01/18 07:58:15;;;;;;;4.82;3.20;;;2.20;99.90;;;;;;5072989;28;20204;-68
2022/01/18 08:00:42;;;;;;;3.30;3.10;;;2.20;99.90;;;;;;5073333;28;20238;-68
2022/01/18 08:03:10;;;;;;;2.92;2.80;;;2.20;99.90;;;;;;5073065;28;20224;-69
2022/01/18 08:05:38;;;;;;;3.35;3.10;;;2.30;99.90;;;;;;5072963;28;20291;-68
2022/01/18 08:08:05;;;;;;;3.10;2.95;;;2.20;99.90;;;;;;5072936;28;20207;-68
2022/01/18 08:10:33;;;;;;;3.83;3.50;;;2.20;99.90;;;;;;5072899;28;20204;-68
2022/01/18 08:13:02;;;;;;;3.75;3.45;;;2.20;99.90;;;;;;5073149;28;20286;-68
2022/01/18 08:15:37;;;;;;;4.35;3.47;;;2.20;99.90;;;;;;5073137;28;20200;-68
2022/01/18 08:18:05;;;;;;;3.20;3.00;;;2.20;99.90;;;;;;5072846;28;20180;-68
2022/01/18 08:20:34;;;;;;;4.03;3.72;;;2.20;99.90;;;;;;5073162;28;20287;-69
2022/01/18 08:23:01;;;;;;;2.92;2.75;;;2.30;99.90;;;;;;5073023;28;20247;-69
2022/01/18 08:25:28;;;;;;;4.13;3.20;;;2.30;99.90;;;;;;5073138;28;20767;-69
2022/01/18 08:27:55;;;;;;;3.35;3.15;;;2.30;99.90;;;;;;5073179;28;20226;-70
2022/01/18 08:30:22;;;;;;;3.53;3.22;;;2.30;99.90;;;;;;5073097;28;20286;-70
2022/01/18 08:32:49;;;;;;;5.53;4.50;;;2.30;99.90;;;;;;5073025;28;20287;-70
2022/01/18 08:35:17;;;;;;;3.75;3.45;;;2.30;99.90;;;;;;5072948;28;20223;-70
2022/01/18 08:37:46;;;;;;;4.20;3.90;;;2.30;99.90;;;;;;5072964;28;20239;-70
2022/01/18 08:40:13;;;;;;;3.83;3.53;;;2.40;99.90;;;;;;5072992;28;20239;-70
2022/01/18 08:42:40;;;;;;;4.40;3.80;;;2.40;99.90;;;;;;5072843;28;20258;-70
2022/01/18 08:45:08;;;;;;;3.80;3.50;;;2.40;99.90;;;;;;5072423;28;20314;-69
2022/01/18 08:47:35;;;;;;;4.60;4.10;;;2.40;99.90;;;;;;5075258;28;20200;-69
2022/01/18 08:50:02;;;;;;;3.80;3.60;;;2.50;99.90;;;;;;5076481;28;20235;-69
2022/01/18 08:52:29;;;;;;;3.83;3.53;;;2.50;99.90;;;;;;5076450;28;20241;-70
2022/01/18 08:54:57;;;;;;;3.83;3.53;;;2.40;99.90;;;;;;5076401;28;20258;-70
2022/01/18 08:57:24;;;;;;;4.15;3.50;;;2.40;99.90;;;;;;5076377;28;20232;-68
2022/01/18 08:59:53;;;;;;;4.57;3.60;;;2.50;99.90;;;;;;5076300;28;20200;-68
2022/01/18 09:02:20;;;;;;;3.72;3.38;;;2.50;99.90;;;;;;5075910;28;20269;-68
2022/01/18 09:04:47;;;;;;;3.90;3.20;;;2.60;99.90;;;;;;5076233;28;20262;-69
2022/01/18 09:07:17;;;;;;;3.63;3.30;;;2.60;99.90;;;;;;5076222;28;20236;-69
2022/01/18 09:09:46;;;;;;;4.25;3.33;;;2.60;99.90;;;;;;5076178;28;20261;-69
2022/01/18 09:12:17;;;;;;;4.43;4.03;;;2.60;99.90;;;;;;5076119;28;20195;-69
2022/01/18 09:14:44;;;;;;;4.13;3.72;;;2.60;99.90;;;;;;5076066;28;20220;-69
2022/01/18 09:17:11;;;;;;;4.13;3.72;;;2.60;99.90;;;;;;5076122;28;20232;-69
2022/01/18 09:19:38;;;;;;;3.45;3.20;;;2.60;99.90;;;;;;5075979;28;20235;-69
2022/01/18 09:22:05;;;;;;;7.00;4.75;;;2.50;99.90;;;;;;5075492;28;20658;-69
2022/01/18 09:24:32;;;;;;;3.80;3.45;;;2.50;99.90;;;;;;5075550;28;20303;-69
2022/01/18 09:27:00;;;;;;;5.65;4.15;;;2.50;99.90;;;;;;5075567;28;20239;-69
2022/01/18 09:29:29;;;;;;;4.97;3.60;;;2.50;99.90;;;;;;5075859;28;20200;-69
2022/01/18 09:31:57;;;;;;;4.18;3.70;;;2.50;99.90;;;;;;5075761;28;20638;-69
2022/01/18 09:34:24;;;;;;;4.55;3.72;;;2.50;99.90;;;;;;5075649;28;20315;-69
2022/01/18 09:36:51;;;;;;;3.63;3.25;;;2.50;99.90;;;;;;5075383;28;20242;-69
2022/01/18 09:39:18;;;;;;;5.13;3.85;;;2.50;99.90;;;;;;5075643;28;20204;-69
2022/01/18 09:41:50;;;;;;;4.70;4.25;;;2.50;99.90;;;;;;5075184;28;20242;-69
2022/01/18 09:44:17;;;;;;;5.05;4.28;;;2.50;99.90;;;;;;5075257;28;20227;-69
2022/01/18 09:46:48;;;;;;;3.88;3.47;;;2.50;99.90;;;;;;5075226;28;20238;-69
2022/01/18 09:49:17;;;;;;;3.58;3.28;;;2.60;99.90;;;;;;5075201;28;20628;-69
2022/01/18 09:51:44;;;;;;;5.43;3.63;;;2.60;99.90;;;;;;5075389;28;20200;-69
2022/01/18 09:54:11;;;;;;;4.50;3.55;;;2.60;99.90;;;;;;5075316;28;20252;-69
2022/01/18 09:56:38;;;;;;;3.03;2.83;;;2.60;99.90;;;;;;5075459;28;20238;-69
2022/01/18 09:59:06;;;;;;;2.60;2.50;;;2.60;99.90;;;;;;5074476;28;20239;-69
2022/01/18 10:01:33;;;;;;;3.28;2.97;;;2.60;99.90;;;;;;5075298;28;20211;-68
2022/01/18 10:04:31;;;;;;;4.13;2.88;;;2.60;99.90;;;;;;5075004;28;20258;-69
2022/01/18 10:06:59;;;;;;;3.67;3.35;;;2.50;99.90;;;;;;5058109;28;20207;-69
2022/01/18 10:09:28;;;;;;;4.40;4.00;;;2.60;99.90;;;;;;5074753;28;20199;-69
2022/01/18 10:12:02;;;;;;;7.38;3.75;;;2.60;99.90;;;;;;5074635;28;20659;-69
2022/01/18 10:14:29;;;;;;;4.32;3.95;;;2.60;99.90;;;;;;5074511;28;20307;-69
2022/01/18 10:16:56;;;;;;;4.45;4.05;;;2.60;99.90;;;;;;5074514;28;20247;-69
2022/01/18 10:19:31;;;;;;;8.15;4.32;;;2.60;99.90;;;;;;5074541;28;20738;-69
2022/01/18 10:22:09;;;;;;;7.05;3.55;;;2.70;99.90;;;;;;5074843;28;20260;-69
2022/01/18 10:24:36;;;;;;;5.85;4.03;;;2.60;99.90;;;;;;5074588;28;20262;-69
2022/01/18 10:27:04;;;;;;;3.63;3.03;;;2.50;99.90;;;;;;5074305;28;20239;-69
2022/01/18 10:29:32;;;;;;;5.70;4.07;;;2.50;99.90;;;;;;5074352;28;20286;-69
2022/01/18 10:32:09;;;;;;;4.40;3.40;;;2.40;99.90;;;;;;5074516;28;20234;-69
2022/01/18 10:35:04;;;;;;;6.97;4.38;;;2.40;99.90;;;;;;5074502;28;20230;-69
2022/01/18 10:37:33;;;;;;;6.43;5.00;;;2.50;99.90;;;;;;5074097;28;20203;-69
2022/01/18 10:40:02;;;;;;;4.03;3.63;;;2.50;99.90;;;;;;5074394;28;20199;-69
2022/01/18 10:42:36;;;;;;;2.58;2.47;;;2.40;99.90;;;;;;5074314;28;20308;-69
2022/01/18 10:45:08;;;;;;;3.63;3.33;;;2.40;99.90;;;;;;5073934;28;20323;-69
2022/01/18 10:47:37;;;;;;;3.88;3.58;;;2.30;99.90;;;;;;5074027;28;20608;-69
2022/01/18 10:50:11;;;;;;;4.43;3.63;;;2.40;99.90;;;;;;5074262;28;20228;-69
2022/01/18 10:52:39;;;;;;;5.18;3.42;;;2.40;99.90;;;;;;5073854;28;20226;-70
2022/01/18 10:55:07;;;;;;;4.30;3.35;;;2.50;99.90;;;;;;5074034;28;20252;-69
2022/01/18 10:57:38;;;;;;;3.25;3.00;;;2.50;99.90;;;;;;5074074;28;20228;-69
2022/01/18 11:00:08;;;;;;;3.33;3.03;;;2.50;99.90;;;;;;5073908;28;20280;-69
2022/01/18 11:02:36;;;;;;;3.35;3.15;;;2.60;99.90;;;;;;5073380;28;20226;-69
2022/01/18 11:05:15;;;;;;;2.85;2.65;;;2.60;99.90;;;;;;5073734;28;20216;-69
2022/01/18 11:07:43;;;;;;;3.00;2.78;;;2.70;99.90;;;;;;5073655;28;20219;-69
2022/01/18 11:10:12;;;;;;;2.92;2.83;;;2.80;99.90;;;;;;5073597;28;20235;-69
2022/01/18 11:12:47;;;;;;;3.47;2.63;;;2.80;99.90;;;;;;5073914;28;20606;-70
2022/01/18 11:15:18;;;;;;;2.60;2.40;;;2.90;99.90;;;;;;5073907;28;20737;-69
2022/01/18 11:17:50;;;;;;;2.47;2.25;;;2.90;99.90;;;;;;5073579;28;20185;-69
2022/01/18 11:20:20;;;;;;;2.65;2.50;;;2.90;99.90;;;;;;5073934;28;20195;-69
2022/01/18 11:22:49;;;;;;;2.08;1.98;;;3.00;99.90;;;;;;5074091;28;20230;-70
2022/01/18 11:25:18;;;;;;;2.08;2.00;;;3.10;99.90;;;;;;5073923;28;20259;-69
2022/01/18 11:27:49;;;;;;;2.10;2.00;;;3.20;99.90;;;;;;5073442;28;20243;-69
2022/01/18 11:30:16;;;;;;;1.75;1.75;;;3.30;99.90;;;;;;5073793;28;20234;-69
2022/01/18 11:32:44;;;;;;;1.95;1.85;;;3.40;99.90;;;;;;5073449;28;20231;-69
2022/01/18 11:35:14;;;;;;;2.00;1.90;;;3.50;99.90;;;;;;5073687;28;20255;-69
2022/01/18 11:37:58;;;;;;;3.05;2.90;;;3.50;99.90;;;;;;5073318;28;20287;-69
2022/01/18 11:40:26;;;;;;;2.53;2.17;;;3.40;99.90;;;;;;5073389;28;20635;-69
2022/01/18 11:42:55;;;;;;;2.55;2.35;;;3.40;99.90;;;;;;5073506;28;20767;-70
2022/01/18 11:45:38;;;;;;;2.10;2.00;;;3.50;99.90;;;;;;5073098;28;20318;-69
2022/01/18 11:48:08;;;;;;;2.33;2.10;;;3.60;99.90;;;;;;5073206;28;20224;-69
2022/01/18 11:50:38;;;;;;;4.13;2.35;;;3.60;99.90;;;;;;5073546;28;20184;-69
2022/01/18 11:53:24;;;;;;;2.10;2.00;;;3.50;99.90;;;;;;5073332;28;20196;-70
2022/01/18 11:55:52;;;;;;;1.92;1.83;;;3.50;99.90;;;;;;5073496;28;20283;-69
2022/01/18 11:58:19;;;;;;;2.15;1.98;;;3.40;99.90;;;;;;5073306;28;20287;-70
2022/01/18 12:00:56;;;;;;;2.30;2.10;;;3.40;99.90;;;;;;5073053;28;20238;-70
2022/01/18 12:03:25;;;;;;;2.17;1.85;;;3.40;99.90;;;;;;5073265;28;20200;-70
2022/01/18 12:05:53;;;;;;;1.92;1.92;;;3.40;99.90;;;;;;5072802;28;20200;-71
2022/01/18 12:08:39;;;;;;;2.90;2.70;;;3.40;99.90;;;;;;5072962;28;20287;-71
2022/01/18 12:11:08;;;;;;;1.75;1.75;;;3.40;99.90;;;;;;5073273;28;20223;-71
2022/01/18 12:13:46;;;;;;;2.63;2.50;;;3.40;99.90;;;;;;5072887;28;20299;-71
2022/01/18 12:16:28;;;;;;;2.95;2.30;;;3.40;99.90;;;;;;5073718;28;20210;-71
2022/01/18 12:19:01;;;;;;;1.75;1.65;;;3.40;99.90;;;;;;5073172;28;20184;-71
2022/01/18 12:21:31;;;;;;;2.50;2.30;;;3.40;99.90;;;;;;5074048;28;20204;-71
2022/01/18 12:24:14;;;;;;;2.47;2.35;;;3.40;99.90;;;;;;5076754;28;20255;-71
2022/01/18 12:26:45;;;;;;;4.70;2.97;;;3.40;99.90;;;;;;5077989;28;20617;-71
2022/01/18 12:29:23;;;;;;;2.53;2.30;;;3.40;99.90;;;;;;5081269;28;20238;-69
2022/01/18 12:35:02;;;;;;;2.97;2.42;;;3.50;99.90;;;;;;5079907;28;20578;-71
2022/01/18 12:37:38;;;;;;;2.92;2.67;;;3.40;99.90;;;;;;5080056;28;20191;-71
2022/01/18 12:40:24;;;;;;;2.55;2.22;;;3.40;99.90;;;;;;5080272;28;20184;-71
2022/01/18 12:45:58;;;;;;;4.50;2.75;;;3.50;99.90;;;;;;5081110;28;20187;-71
2022/01/18 12:48:25;;;;;;;2.33;2.22;;;3.60;99.90;;;;;;5081492;28;20204;-71
2022/01/18 12:50:58;;;;;;;2.83;2.63;;;3.60;99.90;;;;;;5080348;28;20591;-71
2022/01/18 12:53:31;;;;;;;2.47;2.38;;;3.60;99.90;;;;;;5079660;28;20216;-73
2022/01/18 12:56:01;;;;;;;3.13;2.83;;;3.60;99.90;;;;;;5080031;28;20230;-73
2022/01/18 12:58:31;;;;;;;3.22;3.00;;;3.60;99.90;;;;;;5079785;28;20600;-70
2022/01/18 13:01:00;;;;;;;3.20;2.90;;;3.50;99.90;;;;;;5079545;28;20212;-71
2022/01/18 13:03:29;;;;;;;3.13;2.92;;;3.60;99.90;;;;;;5078566;28;20220;-72
2022/01/18 13:05:58;;;;;;;2.97;2.85;;;3.50;99.90;;;;;;5078982;28;20200;-73
2022/01/18 13:08:29;;;;;;;3.25;2.95;;;3.50;99.90;;;;;;5079589;28;20204;-70
2022/01/18 13:10:57;;;;;;;3.30;3.00;;;3.40;99.90;;;;;;5079369;28;20185;-73
2022/01/18 13:13:34;;;;;;;3.40;3.10;;;3.30;99.90;;;;;;5078985;28;20196;-72
2022/01/18 13:25:03;;;;;;;5.05;4.55;;;3.20;99.90;;;;;;5075678;28;20231;-72
2022/01/18 13:27:36;;;;;;;5.65;4.95;;;3.20;99.90;;;;;;5078628;28;20189;-70
2022/01/18 13:30:17;;;;;;;5.07;4.65;;;3.20;99.90;;;;;;5079007;28;20195;-70
2022/01/18 13:32:44;;;;;;;7.15;5.22;;;3.10;99.90;;;;;;5079323;28;20186;-70
2022/01/18 13:35:12;;;;;;;5.43;4.50;;;3.10;99.90;;;;;;5075549;28;20247;-70
2022/01/18 13:37:39;;;;;;;4.68;4.28;;;3.20;99.90;;;;;;5076006;28;20200;-70
2022/01/18 13:40:09;;;;;;;6.95;4.88;;;3.10;99.90;;;;;;5076167;28;20204;-69
2022/01/18 13:42:37;;;;;;;6.10;5.35;;;3.10;99.90;;;;;;5076027;28;20200;-69
2022/01/18 13:45:12;;;;;;;5.38;4.85;;;3.20;99.90;;;;;;5075369;28;20223;-69
2022/01/18 13:47:42;;;;;;;5.65;5.15;;;3.30;99.90;;;;;;5075443;28;20639;-69
2022/01/18 13:50:24;;;;;;;6.15;5.47;;;3.30;99.90;;;;;;5075447;28;20291;-69
2022/01/18 13:52:58;;;;;;;6.82;6.10;;;3.30;99.90;;;;;;5075087;28;20294;-69
2022/01/18 13:55:25;;;;;;;8.52;6.53;;;3.40;99.90;;;;;;5075587;28;20582;-70
2022/01/18 13:57:56;;;;;;;9.35;6.72;;;3.30;99.90;;;;;;5074892;28;20286;-69
2022/01/18 14:00:25;;;;;;;8.95;5.85;;;3.20;99.90;;;;;;5075110;28;20200;-70
2022/01/18 14:02:52;;;;;;;6.90;6.07;;;3.20;99.90;;;;;;5075172;28;20224;-70
2022/01/18 14:05:21;;;;;;;7.80;5.93;;;3.10;99.90;;;;;;5074537;28;20729;-70
2022/01/18 14:07:48;;;;;;;6.30;5.13;;;3.20;99.90;;;;;;5075184;28;20277;-69
2022/01/18 14:10:15;;;;;;;6.07;5.57;;;3.10;99.90;;;;;;5074642;28;20658;-69
2022/01/18 14:12:43;;;;;;;6.05;5.45;;;3.10;99.90;;;;;;5074859;28;20231;-70
2022/01/18 14:15:11;;;;;;;5.90;5.25;;;3.00;99.90;;;;;;5074693;28;20220;-69
2022/01/18 14:17:39;;;;;;;6.97;5.70;;;3.10;99.90;;;;;;5074506;28;20196;-71
2022/01/18 14:20:13;;;;;;;7.63;5.38;;;3.00;99.90;;;;;;5075306;28;20219;-71
2022/01/18 14:22:40;;;;;;;6.18;5.57;;;3.00;99.90;;;;;;5074897;28;20190;-72
2022/01/18 14:25:09;;;;;;;7.50;5.70;;;3.00;99.90;;;;;;5074342;28;20220;-72
2022/01/18 14:27:39;;;;;;;7.10;4.97;;;2.90;99.90;;;;;;5074436;28;20286;-72
2022/01/18 14:30:07;;;;;;;9.77;5.78;;;2.90;99.90;;;;;;5074386;28;20196;-71
2022/01/18 14:32:37;;;;;;;5.85;5.13;;;3.00;99.90;;;;;;5074146;28;20282;-72
2022/01/18 14:35:08;;;;;;;5.97;5.40;;;3.00;99.90;;;;;;5073927;28;20627;-72
2022/01/18 14:37:48;;;;;;;7.32;5.25;;;3.00;99.90;;;;;;5074331;28;20271;-69
2022/01/18 14:40:22;;;;;;;6.95;5.90;;;3.00;99.90;;;;;;5074254;28;20198;-70
2022/01/18 14:42:52;;;;;;;5.68;5.13;;;2.90;99.90;;;;;;5074329;28;20270;-71
2022/01/18 14:45:39;;;;;;;7.47;5.10;;;2.90;99.90;;;;;;5072982;28;20322;-71
2022/01/18 14:48:12;;;;;;;5.65;4.85;;;2.90;99.90;;;;;;5075587;28;20188;-70
2022/01/18 14:50:43;;;;;;;5.72;4.18;;;2.90;99.90;;;;;;5077587;28;20207;-70
2022/01/18 14:53:10;;;;;;;6.63;5.40;;;3.00;99.90;;;;;;5076174;28;20180;-70
2022/01/18 14:55:38;;;;;;;5.57;4.88;;;3.00;99.90;;;;;;5077425;28;20202;-70
2022/01/18 14:58:06;;;;;;;5.22;4.50;;;3.00;99.90;;;;;;5075544;28;20204;-71
2022/01/18 15:00:35;;;;;;;6.75;4.95;;;3.00;99.90;;;;;;5077047;28;20215;-70
2022/01/18 15:03:03;;;;;;;4.75;4.28;;;2.90;99.90;;;;;;5076420;28;20203;-71
2022/01/18 15:05:31;;;;;;;5.88;4.32;;;2.90;99.90;;;;;;5078087;28;20289;-68
2022/01/18 15:08:00;;;;;;;5.05;4.30;;;2.80;99.90;;;;;;5076841;28;20231;-69
2022/01/18 15:10:27;;;;;;;5.85;4.82;;;2.80;99.90;;;;;;5076845;28;20200;-72
2022/01/18 15:12:56;;;;;;;7.35;4.90;;;2.80;99.90;;;;;;5077104;28;20203;-72
2022/01/18 15:15:27;;;;;;;5.95;4.53;;;2.80;99.90;;;;;;5078382;28;20200;-69
2022/01/18 15:17:55;;;;;;;6.03;4.63;;;2.80;99.90;;;;;;5078089;28;20189;-70
2022/01/18 15:20:26;;;;;;;4.63;3.78;;;2.80;99.90;;;;;;5077090;28;20204;-72
2022/01/18 15:22:55;;;;;;;4.55;4.15;;;2.80;99.90;;;;;;5076317;28;20223;-71
2022/01/18 15:25:24;;;;;;;4.20;3.80;;;2.80;99.90;;;;;;5075609;28;20263;-71
2022/01/18 15:27:52;;;;;;;5.45;4.25;;;2.80;99.90;;;;;;5077899;28;20226;-71
2022/01/18 15:30:21;;;;;;;7.25;4.75;;;2.80;99.90;;;;;;5077128;28;20203;-71
2022/01/18 15:32:49;;;;;;;7.28;4.78;;;2.80;99.90;;;;;;5076793;28;20253;-71
2022/01/18 15:35:18;;;;;;;6.57;4.50;;;2.70;99.90;;;;;;5074892;28;20219;-71
2022/01/18 15:37:46;;;;;;;5.78;4.07;;;2.70;99.90;;;;;;5073046;28;20601;-71
2022/01/18 15:40:14;;;;;;;4.15;3.60;;;2.70;99.90;;;;;;5073386;28;20254;-71
2022/01/18 15:42:43;;;;;;;4.25;3.72;;;2.70;99.90;;;;;;5073417;28;20232;-71
2022/01/18 15:45:12;;;;;;;5.38;4.10;;;2.70;99.90;;;;;;5072915;28;20277;-71
2022/01/18 15:47:40;;;;;;;4.28;3.97;;;2.70;99.90;;;;;;5073362;28;20231;-71
2022/01/18 15:50:08;;;;;;;3.67;3.45;;;2.70;99.90;;;;;;5073171;28;20238;-71
2022/01/18 15:52:35;;;;;;;4.90;4.28;;;2.60;99.90;;;;;;5073083;28;20239;-71
2022/01/18 15:55:03;;;;;;;4.63;4.05;;;2.60;99.90;;;;;;5072995;28;20220;-71
2022/01/18 15:57:30;;;;;;;4.30;4.00;;;2.60;99.90;;;;;;5075490;28;20612;-71
2022/01/18 15:59:58;;;;;;;3.67;3.35;;;2.60;99.90;;;;;;5077448;28;20203;-71
2022/01/18 16:02:26;;;;;;;4.35;3.88;;;2.60;99.90;;;;;;5077191;28;20210;-72
2022/01/18 16:04:53;;;;;;;3.72;3.20;;;2.60;99.90;;;;;;5078115;28;20318;-72
2022/01/18 16:07:20;;;;;;;5.05;3.10;;;2.60;99.90;;;;;;5077415;28;20294;-72
2022/01/18 16:09:47;;;;;;;3.60;3.30;;;2.50;99.90;;;;;;5076970;28;20641;-71
2022/01/18 16:12:14;;;;;;;4.53;3.05;;;2.40;99.90;;;;;;5077196;28;20291;-71
2022/01/18 16:14:41;;;;;;;3.53;2.60;;;2.40;99.90;;;;;;5076848;28;20308;-71
2022/01/18 16:17:09;;;;;;;5.00;3.45;;;2.40;99.90;;;;;;5077054;28;20253;-71
2022/01/18 16:19:36;;;;;;;3.03;2.72;;;2.40;99.90;;;;;;5076645;28;20283;-71
2022/01/18 16:22:03;;;;;;;4.53;2.97;;;2.40;99.90;;;;;;5076901;28;20631;-71
2022/01/18 16:24:30;;;;;;;3.85;3.03;;;2.30;99.90;;;;;;5076377;28;20277;-71
2022/01/18 16:26:58;;;;;;;4.22;2.97;;;2.30;99.90;;;;;;5076801;28;20283;-72
2022/01/18 16:29:26;;;;;;;5.10;3.65;;;2.20;99.90;;;;;;5076333;28;20685;-72
2022/01/18 16:31:53;;;;;;;5.50;2.90;;;2.20;99.90;;;;;;5076592;28;20200;-72
2022/01/18 16:34:22;;;;;;;5.80;3.55;;;2.20;99.90;;;;;;5076490;28;20318;-72
2022/01/18 16:36:49;;;;;;;3.58;2.70;;;2.20;99.90;;;;;;5076534;28;20204;-72
2022/01/18 16:39:17;;;;;;;3.55;3.03;;;2.10;99.90;;;;;;5076480;28;20204;-72
2022/01/18 16:41:44;;;;;;;4.32;3.00;;;2.10;99.90;;;;;;5076202;28;20215;-72
2022/01/18 16:44:13;;;;;;;3.05;2.80;;;2.10;99.90;;;;;;5075998;28;20319;-71
2022/01/18 16:46:40;;;;;;;7.47;3.10;;;2.10;99.90;;;;;;5076425;28;20196;-71
2022/01/18 16:49:07;;;;;;;5.00;3.50;;;2.10;99.90;;;;;;5076264;28;20625;-70
2022/01/18 16:51:37;;;;;;;3.88;3.30;;;2.10;99.90;;;;;;5076306;28;20204;-70
2022/01/18 16:54:05;;;;;;;5.75;3.00;;;2.10;99.90;;;;;;5076361;28;20651;-71
2022/01/18 16:56:32;;;;;;;3.15;2.88;;;2.10;99.90;;;;;;5076398;28;20203;-71
2022/01/18 16:58:59;;;;;;;4.40;2.78;;;2.00;99.90;;;;;;5076614;28;20243;-71
2022/01/18 17:01:31;;;;;;;3.55;3.25;;;2.00;99.90;;;;;;5075949;28;20236;-71
2022/01/18 17:03:58;;;;;;;3.55;3.22;;;2.00;99.90;;;;;;5075935;28;20266;-71
2022/01/18 17:06:26;;;;;;;4.60;2.90;;;2.00;99.90;;;;;;5075949;28;20262;-71
2022/01/18 17:08:54;;;;;;;3.35;2.50;;;2.00;99.90;;;;;;5075397;28;20675;-71
2022/01/18 17:11:21;;;;;;;3.65;3.22;;;2.00;99.90;;;;;;5076005;28;20235;-71
2022/01/18 17:13:48;;;;;;;3.33;2.92;;;2.10;99.90;;;;;;5075888;28;20304;-70
2022/01/18 17:16:15;;;;;;;3.78;3.33;;;2.00;99.90;;;;;;5075523;28;20234;-70
2022/01/18 17:18:42;;;;;;;3.53;3.05;;;2.00;99.90;;;;;;5075768;28;20204;-70
2022/01/18 17:21:09;;;;;;;3.33;3.10;;;2.00;99.90;;;;;;5075798;28;20282;-70
2022/01/18 17:23:37;;;;;;;5.40;3.40;;;2.10;99.90;;;;;;5076193;28;20307;-74
2022/01/18 17:26:07;;;;;;;4.32;2.80;;;2.10;99.90;;;;;;5076221;28;20252;-73
2022/01/18 17:28:34;;;;;;;3.65;3.13;;;2.10;99.90;;;;;;5076371;28;20192;-73
2022/01/18 17:31:01;;;;;;;5.40;2.85;;;2.00;99.90;;;;;;5075916;28;20639;-73
2022/01/18 17:33:28;;;;;;;6.60;3.08;;;2.00;99.90;;;;;;5075768;28;20273;-73
2022/01/18 17:35:55;;;;;;;7.60;2.88;;;1.90;99.90;;;;;;5075519;28;20196;-73
2022/01/18 17:38:22;;;;;;;2.85;2.75;;;1.90;99.90;;;;;;5075823;28;20267;-74
2022/01/18 17:40:52;;;;;;;4.32;2.90;;;1.80;99.90;;;;;;5075612;28;20212;-74
2022/01/18 17:43:21;;;;;;;2.50;2.40;;;1.80;99.90;;;;;;5075215;28;20275;-73
2022/01/18 17:45:49;;;;;;;3.22;2.90;;;1.80;99.90;;;;;;5075575;28;20239;-73
2022/01/18 17:48:18;;;;;;;3.50;2.90;;;1.80;99.90;;;;;;5075326;28;20226;-74
2022/01/18 17:50:46;;;;;;;3.40;3.20;;;1.80;99.90;;;;;;5075414;28;20223;-74
2022/01/18 17:53:13;;;;;;;3.10;2.35;;;1.80;99.90;;;;;;5075254;28;20286;-73
2022/01/18 17:55:41;;;;;;;3.67;2.80;;;1.90;99.90;;;;;;5075056;28;20675;-72
2022/01/18 17:58:08;;;;;;;2.70;2.50;;;1.90;99.90;;;;;;5075158;28;20232;-71
2022/01/18 18:00:38;;;;;;;2.83;2.60;;;1.90;99.90;;;;;;5074784;28;20210;-70
2022/01/18 18:03:05;;;;;;;4.55;3.30;;;1.90;99.90;;;;;;5075098;28;20203;-70
2022/01/18 18:05:33;;;;;;;2.83;2.63;;;1.90;99.90;;;;;;5074602;28;20764;-71
2022/01/18 18:08:00;;;;;;;2.85;2.75;;;1.90;99.90;;;;;;5074727;28;20734;-74
2022/01/18 18:10:27;;;;;;;3.25;3.05;;;1.90;99.90;;;;;;5075003;28;20204;-72
2022/01/18 18:12:54;;;;;;;2.80;2.65;;;1.90;99.90;;;;;;5074613;28;20215;-71
2022/01/18 18:15:21;;;;;;;2.88;2.50;;;1.80;99.90;;;;;;5074507;28;20707;-72
2022/01/18 18:17:53;;;;;;;2.67;2.47;;;1.70;99.90;;;;;;5074886;28;20208;-71
2022/01/18 18:20:23;;;;;;;2.55;2.25;;;1.80;99.90;;;;;;5073820;28;20550;-71
2022/01/18 18:22:50;;;;;;;3.03;2.83;;;1.70;99.90;;;;;;5075300;28;20192;-71
2022/01/18 18:25:20;;;;;;;4.75;2.50;;;1.80;99.90;;;;;;5074841;28;20262;-70
2022/01/18 18:27:48;;;;;;;3.17;2.60;;;1.80;99.90;;;;;;5074886;28;20211;-70
2022/01/18 18:30:19;;;;;;;3.28;3.03;;;1.70;99.90;;;;;;5074469;28;20659;-71
2022/01/18 18:32:48;;;;;;;2.65;2.45;;;1.70;99.90;;;;;;5074518;28;20192;-71
2022/01/18 18:35:17;;;;;;;3.80;2.85;;;1.70;99.90;;;;;;5074313;28;20757;-70
2022/01/18 18:37:44;;;;;;;5.25;3.42;;;1.70;99.90;;;;;;5074653;28;20228;-69
2022/01/18 18:40:17;;;;;;;2.90;2.70;;;1.70;99.90;;;;;;5074199;28;20663;-70